Time;durP1;ratioP1;P1;durP2;ratioP2;P2;SDS_P1;SDS_P2;PMS_P1;PMS_P2;Temp;Humidity;BMP_temperature;BMP_pressure;BME280_temperature;BME280_humidity;BME280_pressure;Samples;Min_cycle;Max_cycle;Signal;HPM_P1;HPM_P2
2023/11/02 00:00:57;;;;;;;;;;;11.40;76.40;;;;;;5098276;28;19920;-69
2023/11/02 00:03:43;;;;;;;;;;;11.40;76.50;;;;;;5117059;28;19995;-68
2023/11/02 00:06:49;;;;;;;;;;;11.30;76.80;;;;;;5117084;28;19920;-69
2023/11/02 00:09:35;;;;;;;;;;;11.30;76.80;;;;;;5115452;28;19934;-69
2023/11/02 00:12:03;;;;;;;;;;;11.30;76.90;;;;;;5115045;28;19919;-69
2023/11/02 00:14:51;;;;;;;;;;;11.30;77.10;;;;;;5115777;28;19953;-68
2023/11/02 00:17:54;;;;;;;;;;;11.20;77.20;;;;;;5116966;28;19920;-69
2023/11/02 00:20:38;;;;;;;;;;;11.10;77.50;;;;;;5114838;28;19912;-69
2023/11/02 00:23:05;;;;;;;;;;;11.10;77.50;;;;;;5115765;28;19923;-69
2023/11/02 00:26:10;;;;;;;;;;;11.00;77.50;;;;;;5115395;28;20318;-68
2023/11/02 00:28:37;;;;;;;;;;;11.00;77.80;;;;;;5116464;28;19915;-68
2023/11/02 00:31:05;;;;;;;;;;;11.00;78.20;;;;;;5114897;28;19927;-69
2023/11/02 00:33:31;;;;;;;;;;;11.00;77.40;;;;;;5116399;28;19972;-69
2023/11/02 00:35:57;;;;;;;;;;;11.00;77.80;;;;;;5116292;27;20372;-68
2023/11/02 00:38:28;;;;;;;;;;;11.10;77.80;;;;;;5115097;28;19916;-69
2023/11/02 00:40:56;;;;;;;;;;;11.10;77.60;;;;;;5098217;28;19981;-68
2023/11/02 00:43:22;;;;;;;;;;;11.10;77.50;;;;;;5115120;28;20392;-68
2023/11/02 00:45:49;;;;;;;;;;;11.00;76.90;;;;;;5114944;28;20373;-68
2023/11/02 00:48:33;;;;;;;;;;;11.10;77.40;;;;;;5114693;28;19971;-69
2023/11/02 00:51:17;;;;;;;;;;;11.00;77.50;;;;;;5115701;27;19951;-68
2023/11/02 00:53:45;;;;;;;;;;;11.00;77.50;;;;;;5116081;28;19926;-69
2023/11/02 00:56:12;;;;;;;;;;;10.90;77.50;;;;;;5115921;28;20319;-68
2023/11/02 00:58:44;;;;;;;;;;;10.90;77.70;;;;;;5114754;28;19934;-69
2023/11/02 01:01:29;;;;;;;;;;;10.90;77.70;;;;;;5115490;27;20349;-68
2023/11/02 01:04:32;;;;;;;;;;;10.90;77.80;;;;;;5114637;28;19912;-68
2023/11/02 01:06:58;;;;;;;;;;;10.80;77.60;;;;;;5115917;28;19926;-69
2023/11/02 01:10:01;;;;;;;;;;;10.80;77.70;;;;;;5115576;28;19911;-68
2023/11/02 01:12:45;;;;;;;;;;;10.80;77.60;;;;;;5115597;28;19923;-68
2023/11/02 01:15:46;;;;;;;;;;;10.70;77.60;;;;;;5115664;28;19981;-68
2023/11/02 01:18:13;;;;;;;;;;;10.70;77.70;;;;;;5099766;28;20010;-69
2023/11/02 01:20:51;;;;;;;;;;;10.60;77.60;;;;;;5113684;28;19946;-69
2023/11/02 01:23:17;;;;;;;;;;;10.60;77.70;;;;;;5115458;28;20089;-69
2023/11/02 01:25:45;;;;;;;;;;;10.50;77.70;;;;;;5097167;28;19915;-69
2023/11/02 01:28:49;;;;;;;;;;;10.50;77.80;;;;;;5097042;28;19962;-68
2023/11/02 01:31:17;;;;;;;;;;;10.40;77.80;;;;;;5114889;28;19919;-69
2023/11/02 01:34:20;;;;;;;;;;;10.50;77.70;;;;;;5114182;28;19918;-68
2023/11/02 01:36:46;;;;;;;;;;;10.50;77.60;;;;;;5114019;28;20264;-69
2023/11/02 01:39:30;;;;;;;;;;;10.50;77.70;;;;;;5115029;28;19965;-68
2023/11/02 01:42:18;;;;;;;;;;;10.50;77.20;;;;;;5115047;28;20285;-69
2023/11/02 01:45:05;;;;;;;;;;;10.60;77.10;;;;;;5113957;28;19968;-69
2023/11/02 01:47:48;;;;;;;;;;;10.60;76.90;;;;;;5113838;28;19916;-69
2023/11/02 01:50:51;;;;;;;;;;;10.60;76.90;;;;;;5114546;28;19920;-69
2023/11/02 01:53:54;;;;;;;;;;;10.60;76.90;;;;;;5114847;28;19930;-69
2023/11/02 01:56:41;;;;;;;;;;;10.60;76.80;;;;;;5115118;28;19920;-68
2023/11/02 01:59:24;;;;;;;;;;;10.70;77.00;;;;;;5114824;28;19941;-69
2023/11/02 02:01:58;;;;;;;;;;;10.70;76.70;;;;;;5114598;28;19926;-69
2023/11/02 02:05:03;;;;;;;;;;;10.70;76.80;;;;;;5096570;28;19911;-69
2023/11/02 02:07:50;;;;;;;;;;;10.70;77.00;;;;;;5114037;28;19920;-69
2023/11/02 02:10:34;;;;;;;;;;;10.60;77.20;;;;;;5095911;28;19915;-69
2023/11/02 02:13:13;;;;;;;;;;;10.50;77.30;;;;;;5114364;28;19919;-68
2023/11/02 02:15:54;;;;;;;;;;;10.50;77.50;;;;;;5114444;28;19957;-69
2023/11/02 02:18:28;;;;;;;;;;;10.40;77.50;;;;;;5113627;28;19912;-69
2023/11/02 02:21:01;;;;;;;;;;;10.40;77.60;;;;;;5113829;28;19920;-69
2023/11/02 02:23:48;;;;;;;;;;;10.30;77.80;;;;;;5113190;28;19919;-69
2023/11/02 02:26:38;;;;;;;;;;;10.30;77.70;;;;;;5113083;28;19924;-69
2023/11/02 02:29:32;;;;;;;;;;;10.20;77.50;;;;;;5113029;28;19912;-69
2023/11/02 02:32:08;;;;;;;;;;;10.20;77.50;;;;;;5113650;28;20365;-68
2023/11/02 02:35:11;;;;;;;;;;;10.10;77.50;;;;;;5095881;28;20007;-68
2023/11/02 02:38:16;;;;;;;;;;;10.10;77.50;;;;;;5114440;28;19999;-68
2023/11/02 02:41:04;;;;;;;;;;;10.00;77.70;;;;;;5113657;28;19992;-68
2023/11/02 02:43:31;;;;;;;;;;;10.00;77.60;;;;;;5114048;28;19963;-69
2023/11/02 02:45:57;;;;;;;;;;;9.90;77.50;;;;;;5095741;28;19969;-69
2023/11/02 02:48:23;;;;;;;;;;;10.00;77.60;;;;;;5095445;28;19924;-68
2023/11/02 02:53:37;;;;;;;;;;;9.90;77.50;;;;;;5112946;28;20277;-68
2023/11/02 02:56:07;;;;;;;;;;;9.90;77.50;;;;;;5112429;28;20360;-68
2023/11/02 02:58:51;;;;;;;;;;;9.80;77.10;;;;;;5112473;28;19950;-68
2023/11/02 03:01:19;;;;;;;;;;;9.70;77.20;;;;;;5111782;28;20375;-68
2023/11/02 03:03:48;;;;;;;;;;;9.60;77.10;;;;;;5112513;28;19956;-68
2023/11/02 03:06:16;;;;;;;;;;;9.60;77.10;;;;;;5112332;28;20307;-69
2023/11/02 03:08:42;;;;;;;;;;;9.60;77.00;;;;;;5112014;28;19919;-68
2023/11/02 03:11:10;;;;;;;;;;;9.60;77.10;;;;;;5111857;28;19919;-69
2023/11/02 03:13:39;;;;;;;;;;;9.50;76.90;;;;;;5112202;28;19951;-69
2023/11/02 03:16:06;;;;;;;;;;;9.50;76.90;;;;;;5112166;28;19927;-69
2023/11/02 03:18:36;;;;;;;;;;;9.50;76.90;;;;;;5112097;28;19919;-69
2023/11/02 03:21:02;;;;;;;;;;;9.60;76.80;;;;;;5111514;28;19920;-69
2023/11/02 03:24:05;;;;;;;;;;;9.50;76.20;;;;;;5113208;28;20262;-69
2023/11/02 03:26:54;;;;;;;;;;;9.60;76.50;;;;;;5112026;28;20280;-69
2023/11/02 03:29:41;;;;;;;;;;;9.60;76.40;;;;;;5112100;28;19911;-68
2023/11/02 03:32:25;;;;;;;;;;;9.70;76.40;;;;;;5111638;28;20006;-68
2023/11/02 03:35:10;;;;;;;;;;;9.70;76.40;;;;;;5113202;28;20280;-68
2023/11/02 03:37:45;;;;;;;;;;;9.70;76.20;;;;;;5113566;28;20287;-68
2023/11/02 03:40:48;;;;;;;;;;;9.70;76.10;;;;;;5111519;28;20195;-69
2023/11/02 03:43:52;;;;;;;;;;;9.70;76.20;;;;;;5113253;28;19924;-69
2023/11/02 03:46:55;;;;;;;;;;;9.70;76.40;;;;;;5113169;28;19965;-69
2023/11/02 03:49:29;;;;;;;;;;;9.70;76.70;;;;;;5112832;28;19912;-69
2023/11/02 03:52:13;;;;;;;;;;;9.60;76.70;;;;;;5111622;28;20010;-68
2023/11/02 03:54:38;;;;;;;;;;;9.50;76.90;;;;;;5112017;28;19915;-69
2023/11/02 03:57:16;;;;;;;;;;;9.50;76.80;;;;;;5113291;28;19962;-69
2023/11/02 04:00:08;;;;;;;;;;;9.40;76.30;;;;;;5113121;28;20006;-68
2023/11/02 04:02:36;;;;;;;;;;;9.30;76.00;;;;;;5113202;28;20276;-69
2023/11/02 04:05:13;;;;;;;;;;;9.30;76.00;;;;;;5111893;28;20394;-68
2023/11/02 04:07:45;;;;;;;;;;;9.20;76.10;;;;;;5095130;28;19922;-69
2023/11/02 04:10:12;;;;;;;;;;;9.30;76.10;;;;;;5111102;28;20288;-68
2023/11/02 04:12:47;;;;;;;;;;;9.20;75.80;;;;;;5111794;28;20003;-68
2023/11/02 04:15:15;;;;;;;;;;;9.20;75.80;;;;;;5112771;28;20365;-68
2023/11/02 04:17:41;;;;;;;;;;;9.20;75.90;;;;;;5113404;28;20422;-69
2023/11/02 04:20:07;;;;;;;;;;;9.20;75.80;;;;;;5110951;28;19958;-69
2023/11/02 04:22:33;;;;;;;;;;;9.20;75.70;;;;;;5113293;28;20262;-69
2023/11/02 04:25:00;;;;;;;;;;;9.30;75.90;;;;;;5094496;28;19922;-68
2023/11/02 04:27:26;;;;;;;;;;;9.20;75.70;;;;;;5113214;28;19916;-68
2023/11/02 04:29:51;;;;;;;;;;;9.20;75.90;;;;;;5113661;28;19916;-69
2023/11/02 04:32:17;;;;;;;;;;;9.20;76.00;;;;;;5116347;28;19916;-69
2023/11/02 04:34:43;;;;;;;;;;;9.20;76.10;;;;;;5115770;28;20023;-69
2023/11/02 04:37:28;;;;;;;;;;;9.20;76.10;;;;;;5116497;28;19937;-68
2023/11/02 04:39:53;;;;;;;;;;;9.20;76.10;;;;;;5116240;28;19920;-68
2023/11/02 04:42:21;;;;;;;;;;;9.20;76.20;;;;;;5114376;28;19915;-68
2023/11/02 04:44:47;;;;;;;;;;;9.20;76.20;;;;;;5098226;28;20372;-69
2023/11/02 04:47:13;;;;;;;;;;;9.20;75.40;;;;;;5116193;27;19919;-68
2023/11/02 04:49:39;;;;;;;;;;;9.20;76.00;;;;;;5115872;28;20679;-68
2023/11/02 04:52:06;;;;;;;;;;;9.20;76.90;;;;;;5115986;28;20024;-68
2023/11/02 04:54:33;;;;;;;;;;;9.10;75.60;;;;;;5116324;28;19916;-69
2023/11/02 04:57:00;;;;;;;;;;;9.10;76.10;;;;;;5114699;28;20722;-68
2023/11/02 04:59:28;;;;;;;;;;;9.10;76.30;;;;;;5114551;28;20271;-69
2023/11/02 05:01:57;;;;;;;;;;;9.00;76.40;;;;;;5114125;28;19923;-69
2023/11/02 05:04:23;;;;;;;;;;;9.00;76.30;;;;;;5114803;28;20006;-69
2023/11/02 05:06:49;;;;;;;;;;;9.00;76.10;;;;;;5115998;28;19919;-68
2023/11/02 05:09:16;;;;;;;;;;;8.90;75.70;;;;;;5097108;28;19918;-69
2023/11/02 05:11:42;;;;;;;;;;;9.00;75.70;;;;;;5113885;28;19920;-68
2023/11/02 05:14:08;;;;;;;;;;;8.90;75.70;;;;;;5114371;28;19912;-68
2023/11/02 05:16:34;;;;;;;;;;;9.00;75.80;;;;;;5114218;28;19920;-69
2023/11/02 05:19:00;;;;;;;;;;;8.90;76.50;;;;;;5097533;28;19922;-69
2023/11/02 05:21:26;;;;;;;;;;;8.90;76.60;;;;;;5113752;28;19972;-69
2023/11/02 05:23:52;;;;;;;;;;;8.90;76.60;;;;;;5114267;28;19916;-68
2023/11/02 05:26:18;;;;;;;;;;;8.90;76.40;;;;;;5113951;28;19926;-68
2023/11/02 05:28:44;;;;;;;;;;;8.90;76.10;;;;;;5114097;28;20007;-69
2023/11/02 05:31:09;;;;;;;;;;;8.80;76.00;;;;;;5095839;28;19919;-70
2023/11/02 05:33:36;;;;;;;;;;;8.80;75.90;;;;;;5108793;28;19916;-69
2023/11/02 05:36:02;;;;;;;;;;;8.70;75.80;;;;;;5113568;28;19970;-69
2023/11/02 05:38:29;;;;;;;;;;;8.70;76.00;;;;;;5113706;28;19961;-69
2023/11/02 05:40:55;;;;;;;;;;;8.70;76.10;;;;;;5114264;28;19916;-69
2023/11/02 05:43:21;;;;;;;;;;;8.60;75.90;;;;;;5113222;28;20238;-69
2023/11/02 05:45:46;;;;;;;;;;;8.60;75.90;;;;;;5113807;28;19998;-69
2023/11/02 05:48:12;;;;;;;;;;;8.60;75.70;;;;;;5114737;28;20419;-68
2023/11/02 05:50:38;;;;;;;;;;;8.60;75.90;;;;;;5113226;28;19916;-68
2023/11/02 05:53:04;;;;;;;;;;;8.60;75.80;;;;;;5114419;28;19926;-69
2023/11/02 05:55:30;;;;;;;;;;;8.50;75.80;;;;;;5096467;28;20427;-68
2023/11/02 05:57:56;;;;;;;;;;;8.50;75.90;;;;;;5113531;28;19946;-69
2023/11/02 06:00:21;;;;;;;;;;;8.50;76.70;;;;;;5113918;28;19912;-69
2023/11/02 06:02:47;;;;;;;;;;;8.50;75.90;;;;;;5114741;28;20010;-69
2023/11/02 06:05:14;;;;;;;;;;;8.60;76.00;;;;;;5114650;28;20335;-68
2023/11/02 06:07:40;;;;;;;;;;;8.60;75.80;;;;;;5114756;28;19911;-68
2023/11/02 06:10:06;;;;;;;;;;;8.60;75.70;;;;;;5112623;28;20039;-69
2023/11/02 06:12:32;;;;;;;;;;;8.60;75.50;;;;;;5114883;28;19912;-69
2023/11/02 06:14:58;;;;;;;;;;;8.70;75.80;;;;;;5114532;28;20014;-68
2023/11/02 06:17:24;;;;;;;;;;;8.70;75.80;;;;;;5114671;28;19919;-69
2023/11/02 06:19:50;;;;;;;;;;;8.70;76.70;;;;;;5114215;28;19938;-69
2023/11/02 06:22:16;;;;;;;;;;;8.70;75.30;;;;;;5112618;28;19961;-69
2023/11/02 06:24:43;;;;;;;;;;;8.80;75.90;;;;;;5114193;28;19916;-69
2023/11/02 06:27:09;;;;;;;;;;;8.80;75.70;;;;;;5114033;28;19937;-70
2023/11/02 06:29:36;;;;;;;;;;;8.90;75.90;;;;;;5114057;28;19916;-68
2023/11/02 06:32:04;;;;;;;;;;;8.90;75.80;;;;;;5113922;27;19915;-69
2023/11/02 06:34:36;;;;;;;;;;;9.00;75.20;;;;;;5112807;28;20395;-70
2023/11/02 06:37:02;;;;;;;;;;;9.00;75.60;;;;;;5112888;28;19916;-69
2023/11/02 06:39:28;;;;;;;;;;;9.10;75.80;;;;;;5112568;28;20281;-69
2023/11/02 06:41:54;;;;;;;;;;;9.20;75.90;;;;;;5095165;28;19926;-69
2023/11/02 06:44:20;;;;;;;;;;;9.20;75.90;;;;;;5113915;28;19985;-69
2023/11/02 06:46:47;;;;;;;;;;;9.30;76.80;;;;;;5095767;28;19970;-69
2023/11/02 06:49:13;;;;;;;;;;;9.30;75.80;;;;;;5112309;28;19926;-68
2023/11/02 06:51:39;;;;;;;;;;;9.40;75.90;;;;;;5113437;28;19915;-70
2023/11/02 06:54:04;;;;;;;;;;;9.40;75.90;;;;;;5113562;28;20357;-69
2023/11/02 06:56:30;;;;;;;;;;;9.50;76.20;;;;;;5113873;28;20353;-68
2023/11/02 06:58:56;;;;;;;;;;;9.60;76.20;;;;;;5113562;28;19911;-69
2023/11/02 07:01:22;;;;;;;;;;;9.60;76.20;;;;;;5111741;28;19943;-68
2023/11/02 07:03:48;;;;;;;;;;;9.70;75.70;;;;;;5112347;28;19916;-69
2023/11/02 07:06:14;;;;;;;;;;;9.80;76.30;;;;;;5095359;28;19931;-69
2023/11/02 07:08:40;;;;;;;;;;;9.80;75.60;;;;;;5111969;28;19915;-68
2023/11/02 07:11:06;;;;;;;;;;;9.90;76.70;;;;;;5094842;28;19919;-69
2023/11/02 07:13:32;;;;;;;;;;;10.00;77.10;;;;;;5112364;28;19964;-69
2023/11/02 07:15:58;;;;;;;;;;;10.00;77.00;;;;;;5113624;28;19923;-69
2023/11/02 07:18:24;;;;;;;;;;;10.10;77.00;;;;;;5112413;28;19950;-68
2023/11/02 07:20:50;;;;;;;;;;;10.20;77.00;;;;;;5094910;28;20433;-69
2023/11/02 07:23:16;;;;;;;;;;;10.30;77.30;;;;;;5095243;28;19915;-68
2023/11/02 07:25:42;;;;;;;;;;;10.40;76.60;;;;;;5111978;28;19927;-69
2023/11/02 07:28:08;;;;;;;;;;;10.50;77.20;;;;;;5111806;28;19912;-69
2023/11/02 07:30:35;;;;;;;;;;;10.70;77.20;;;;;;5112684;28;19922;-69
2023/11/02 07:33:00;;;;;;;;;;;10.80;76.70;;;;;;5094989;28;20337;-69
2023/11/02 07:35:26;;;;;;;;;;;10.90;77.10;;;;;;5113216;28;20207;-69
2023/11/02 07:37:53;;;;;;;;;;;10.90;77.00;;;;;;5112928;28;20391;-69
2023/11/02 07:40:19;;;;;;;;;;;11.00;78.30;;;;;;5111576;28;19918;-69
2023/11/02 07:42:45;;;;;;;;;;;11.10;77.80;;;;;;5112475;28;19922;-69
2023/11/02 07:45:11;;;;;;;;;;;11.20;78.30;;;;;;5111848;28;19927;-69
2023/11/02 07:47:37;;;;;;;;;;;11.30;78.20;;;;;;5095053;28;20405;-69
2023/11/02 07:50:04;;;;;;;;;;;11.50;78.70;;;;;;5111305;28;19923;-68
2023/11/02 07:52:30;;;;;;;;;;;11.60;78.70;;;;;;5111686;28;19915;-69
2023/11/02 07:57:40;;;;;;;;;;;12.00;79.30;;;;;;5107911;28;20438;-69
2023/11/02 08:00:07;;;;;;;;;;;12.20;78.90;;;;;;5111985;28;20002;-69
2023/11/02 08:02:34;;;;;;;;;;;12.20;78.10;;;;;;5112052;28;19920;-68
2023/11/02 08:05:00;;;;;;;;;;;12.40;78.00;;;;;;5114189;28;19916;-69
2023/11/02 08:07:26;;;;;;;;;;;12.70;77.80;;;;;;5115806;28;20352;-69
2023/11/02 08:09:51;;;;;;;;;;;12.80;77.10;;;;;;5116998;28;20026;-68
2023/11/02 08:12:20;;;;;;;;;;;13.00;76.40;;;;;;5116537;28;19964;-69
2023/11/02 08:14:47;;;;;;;;;;;13.30;76.00;;;;;;5116963;28;19912;-69
2023/11/02 08:17:17;;;;;;;;;;;14.90;72.40;;;;;;5115708;28;19923;-69
2023/11/02 08:19:47;;;;;;;;;;;17.60;63.50;;;;;;5115678;28;20317;-69
2023/11/02 08:22:13;;;;;;;;;;;19.60;56.20;;;;;;5115197;28;19977;-69
2023/11/02 08:24:39;;;;;;;;;;;21.50;52.10;;;;;;5115509;28;19912;-69
2023/11/02 08:27:05;;;;;;;;;;;21.90;49.00;;;;;;5115540;28;20006;-68
2023/11/02 08:29:32;;;;;;;;;;;21.20;50.60;;;;;;5116494;28;19919;-69
2023/11/02 08:31:58;;;;;;;;;;;20.60;51.60;;;;;;5114781;28;19919;-69
2023/11/02 08:34:24;;;;;;;;;;;19.90;53.80;;;;;;5115362;28;19911;-70
2023/11/02 08:36:50;;;;;;;;;;;19.90;54.30;;;;;;5116643;28;20373;-69
2023/11/02 08:39:17;;;;;;;;;;;19.90;54.90;;;;;;5115030;28;19912;-70
2023/11/02 08:41:43;;;;;;;;;;;19.80;56.50;;;;;;5114666;28;19920;-68
2023/11/02 08:44:09;;;;;;;;;;;19.60;55.60;;;;;;5115010;28;19918;-69
2023/11/02 08:46:36;;;;;;;;;;;19.40;55.40;;;;;;5116442;28;20014;-70
2023/11/02 08:49:02;;;;;;;;;;;19.30;53.70;;;;;;5114687;28;19912;-69
2023/11/02 08:51:28;;;;;;;;;;;19.20;54.20;;;;;;5114597;28;19962;-69
2023/11/02 08:53:54;;;;;;;;;;;19.20;52.80;;;;;;5114958;28;19956;-69
2023/11/02 08:56:20;;;;;;;;;;;19.30;54.00;;;;;;5114743;28;19955;-69
2023/11/02 08:59:06;;;;;;;;;;;19.40;53.50;;;;;;5114839;28;20284;-69
2023/11/02 09:01:33;;;;;;;;;;;19.60;51.40;;;;;;5115759;27;19926;-69
2023/11/02 09:03:59;;;;;;;;;;;19.70;51.90;;;;;;5114794;28;19911;-69
2023/11/02 09:06:26;;;;;;;;;;;19.60;51.90;;;;;;5114667;28;19920;-68
2023/11/02 09:08:56;;;;;;;;;;;19.50;52.30;;;;;;5114401;28;19943;-69
2023/11/02 09:11:23;;;;;;;;;;;19.30;52.20;;;;;;5115599;28;19926;-70
2023/11/02 09:13:49;;;;;;;;;;;19.20;52.20;;;;;;5114664;28;19981;-69
2023/11/02 09:16:15;;;;;;;;;;;19.20;52.20;;;;;;5114379;28;20372;-69
2023/11/02 09:18:41;;;;;;;;;;;19.20;52.40;;;;;;5097757;28;20303;-69
2023/11/02 09:21:07;;;;;;;;;;;19.40;51.80;;;;;;5115077;28;19923;-68
2023/11/02 09:23:34;;;;;;;;;;;19.50;52.10;;;;;;5114394;28;20513;-69
2023/11/02 09:26:20;;;;;;;;;;;19.50;51.80;;;;;;5114271;28;19955;-68
2023/11/02 09:28:48;;;;;;;;;;;19.70;51.30;;;;;;5114238;28;20400;-70
2023/11/02 09:31:14;;;;;;;;;;;19.80;50.60;;;;;;5114867;28;20429;-69
2023/11/02 09:33:40;;;;;;;;;;;19.80;50.60;;;;;;5115515;28;19922;-69
2023/11/02 09:36:06;;;;;;;;;;;19.80;50.50;;;;;;5096892;28;19919;-70
2023/11/02 09:38:32;;;;;;;;;;;19.70;50.60;;;;;;5113810;28;19912;-70
2023/11/02 09:40:58;;;;;;;;;;;19.50;51.20;;;;;;5114604;28;20273;-70
2023/11/02 09:43:24;;;;;;;;;;;19.30;51.50;;;;;;5096892;28;19969;-69
2023/11/02 09:45:50;;;;;;;;;;;19.00;52.30;;;;;;5115493;28;19920;-69
2023/11/02 09:48:16;;;;;;;;;;;18.80;52.90;;;;;;5114937;28;19915;-70
2023/11/02 09:50:43;;;;;;;;;;;18.90;53.10;;;;;;5114609;28;20003;-69
2023/11/02 09:53:09;;;;;;;;;;;18.90;53.00;;;;;;5114919;28;19915;-69
2023/11/02 09:55:38;;;;;;;;;;;19.00;53.00;;;;;;5113642;28;19919;-70
2023/11/02 09:58:06;;;;;;;;;;;19.00;52.70;;;;;;5113708;28;20288;-70
2023/11/02 10:00:32;;;;;;;;;;;19.20;52.80;;;;;;5080504;28;19927;-70
2023/11/02 10:02:57;;;;;;;;;;;19.20;53.10;;;;;;5093565;28;19920;-69
2023/11/02 10:05:24;;;;;;;;;;;19.30;53.10;;;;;;5092876;28;20016;-70
2023/11/02 10:07:50;;;;;;;;;;;19.40;53.00;;;;;;5092846;28;19924;-70
2023/11/02 10:10:17;;;;;;;;;;;19.30;53.00;;;;;;5090761;28;19916;-69
2023/11/02 10:12:43;;;;;;;;;;;19.30;52.90;;;;;;5073027;28;19971;-70
2023/11/02 10:15:11;;;;;;;;;;;19.40;53.10;;;;;;5073860;28;19966;-69
2023/11/02 10:17:38;;;;;;;;;;;19.60;52.50;;;;;;5072832;28;20362;-70
2023/11/02 10:20:15;;;;;;;;;;;20.00;52.00;;;;;;5073473;28;19966;-70
2023/11/02 10:22:44;;;;;;;;;;;20.50;50.70;;;;;;5093046;28;19916;-70
2023/11/02 10:25:29;;;;;;;;;;;20.60;50.80;;;;;;5092681;28;20026;-69
2023/11/02 10:27:56;;;;;;;;;;;20.60;51.30;;;;;;5098289;28;19927;-70
2023/11/02 10:30:23;;;;;;;;;;;20.60;50.40;;;;;;5096569;28;19983;-70
2023/11/02 10:32:49;;;;;;;;;;;20.50;49.70;;;;;;5091648;28;19942;-70
2023/11/02 10:35:15;;;;;;;;;;;20.40;49.80;;;;;;5101730;28;19995;-70
2023/11/02 10:37:41;;;;;;;;;;;20.30;50.10;;;;;;5095224;28;19916;-70
2023/11/02 10:40:08;;;;;;;;;;;20.20;50.30;;;;;;5102919;28;19919;-69
2023/11/02 10:42:34;;;;;;;;;;;20.10;50.00;;;;;;5100366;28;20422;-70
2023/11/02 10:45:03;;;;;;;;;;;20.30;50.70;;;;;;5111999;28;19920;-70
2023/11/02 10:47:30;;;;;;;;;;;20.60;49.50;;;;;;5095913;28;20429;-69
2023/11/02 10:50:14;;;;;;;;;;;20.90;46.90;;;;;;5112649;28;19915;-68
2023/11/02 10:52:46;;;;;;;;;;;21.20;45.60;;;;;;5112457;28;19930;-69
2023/11/02 10:55:50;;;;;;;;;;;21.50;44.50;;;;;;5112586;28;19918;-70
2023/11/02 10:58:17;;;;;;;;;;;21.80;43.80;;;;;;5112379;28;19920;-69
2023/11/02 11:00:45;;;;;;;;;;;21.80;44.70;;;;;;5111901;28;20003;-69
2023/11/02 11:03:11;;;;;;;;;;;22.00;45.10;;;;;;5112454;28;20360;-70
2023/11/02 11:05:38;;;;;;;;;;;22.10;44.40;;;;;;5112594;28;19998;-69
2023/11/02 11:08:07;;;;;;;;;;;22.00;44.20;;;;;;5111906;28;20331;-69
2023/11/02 11:10:33;;;;;;;;;;;22.20;43.70;;;;;;5107712;28;19927;-69
2023/11/02 11:12:59;;;;;;;;;;;22.20;41.80;;;;;;5093367;28;20300;-69
2023/11/02 11:15:25;;;;;;;;;;;22.30;42.10;;;;;;5092936;28;20007;-70
2023/11/02 11:17:51;;;;;;;;;;;22.20;42.10;;;;;;5092048;28;19927;-68
2023/11/02 11:20:17;;;;;;;;;;;22.00;41.70;;;;;;5101753;27;19942;-69
2023/11/02 11:23:03;;;;;;;;;;;21.70;42.30;;;;;;5095172;28;19920;-69
2023/11/02 11:25:29;;;;;;;;;;;21.60;43.10;;;;;;5091923;28;20285;-70
2023/11/02 11:27:55;;;;;;;;;;;21.50;42.90;;;;;;5091653;28;19927;-69
2023/11/02 11:30:21;;;;;;;;;;;21.40;42.70;;;;;;5091144;28;20086;-70
2023/11/02 11:32:48;;;;;;;;;;;21.40;42.10;;;;;;5092888;28;19920;-70
2023/11/02 11:35:17;;;;;;;;;;;21.20;41.80;;;;;;5091524;28;19943;-69
2023/11/02 11:37:50;;;;;;;;;;;21.10;43.40;;;;;;5093304;28;20395;-69
2023/11/02 11:40:19;;;;;;;;;;;21.10;42.80;;;;;;5092903;28;20434;-69
2023/11/02 11:43:15;;;;;;;;;;;21.20;43.10;;;;;;5097142;28;19933;-69
2023/11/02 11:45:51;;;;;;;;;;;21.20;43.00;;;;;;5099214;28;20383;-69
2023/11/02 11:48:32;;;;;;;;;;;21.10;43.00;;;;;;5117075;28;20334;-70
2023/11/02 11:50:59;;;;;;;;;;;21.00;43.10;;;;;;5116923;28;20343;-69
2023/11/02 11:53:25;;;;;;;;;;;20.90;43.10;;;;;;5117378;28;19919;-70
2023/11/02 11:55:53;;;;;;;;;;;20.90;43.80;;;;;;5117655;28;20028;-69
2023/11/02 11:58:56;;;;;;;;;;;20.80;44.10;;;;;;5112943;28;19915;-69
2023/11/02 12:01:22;;;;;;;;;;;20.80;44.30;;;;;;5115369;28;19919;-69
2023/11/02 12:03:48;;;;;;;;;;;20.80;44.40;;;;;;5117246;28;19918;-70
2023/11/02 12:06:33;;;;;;;;;;;20.70;45.40;;;;;;5115872;28;20380;-69
2023/11/02 12:09:00;;;;;;;;;;;20.70;45.00;;;;;;5116722;28;20393;-69
2023/11/02 12:11:26;;;;;;;;;;;20.70;45.40;;;;;;5103948;28;19928;-68
2023/11/02 12:13:57;;;;;;;;;;;20.70;45.10;;;;;;5106004;28;19922;-70
2023/11/02 12:16:42;;;;;;;;;;;20.70;45.20;;;;;;5096079;28;19920;-70
2023/11/02 12:19:10;;;;;;;;;;;20.60;45.50;;;;;;5096268;28;20007;-70
2023/11/02 12:21:38;;;;;;;;;;;20.50;45.30;;;;;;5094832;28;20168;-69
2023/11/02 12:24:22;;;;;;;;;;;20.50;45.60;;;;;;5095139;28;19916;-70
2023/11/02 12:26:48;;;;;;;;;;;20.50;46.20;;;;;;5094911;28;19927;-70
2023/11/02 12:29:14;;;;;;;;;;;20.50;46.90;;;;;;5095001;28;19920;-69
2023/11/02 12:31:42;;;;;;;;;;;20.40;47.20;;;;;;5094407;28;20020;-69
2023/11/02 12:34:11;;;;;;;;;;;20.50;46.80;;;;;;5096039;28;19991;-69
2023/11/02 12:36:38;;;;;;;;;;;20.50;47.10;;;;;;5096189;28;19928;-70
2023/11/02 12:39:27;;;;;;;;;;;20.50;47.60;;;;;;5094705;28;19998;-69
2023/11/02 12:41:53;;;;;;;;;;;20.40;47.20;;;;;;5094516;28;19942;-69
2023/11/02 12:44:22;;;;;;;;;;;20.30;46.50;;;;;;5095965;28;19916;-69
2023/11/02 12:46:52;;;;;;;;;;;20.30;47.20;;;;;;5078384;28;19967;-70
2023/11/02 12:49:20;;;;;;;;;;;20.30;46.90;;;;;;5078355;28;20280;-69
2023/11/02 12:52:02;;;;;;;;;;;20.20;47.00;;;;;;5093593;28;19920;-70
2023/11/02 12:54:31;;;;;;;;;;;20.20;47.00;;;;;;5095985;28;19955;-69
2023/11/02 12:57:05;;;;;;;;;;;20.20;47.20;;;;;;5094637;28;19999;-69
2023/11/02 13:02:30;;;;;;;;;;;20.20;47.30;;;;;;5094504;28;19927;-70
2023/11/02 13:07:41;;;;;;;;;;;20.30;46.30;;;;;;5095878;28;19930;-69
2023/11/02 13:12:55;;;;;;;;;;;20.70;44.80;;;;;;5094761;28;20289;-69
2023/11/02 13:15:21;;;;;;;;;;;20.60;45.60;;;;;;5094142;28;19916;-69
2023/11/02 13:17:47;;;;;;;;;;;20.40;45.20;;;;;;5095325;28;19919;-70
2023/11/02 13:20:15;;;;;;;;;;;20.30;45.50;;;;;;5094627;28;19935;-69
2023/11/02 13:22:47;;;;;;;;;;;20.10;45.70;;;;;;5095302;28;19924;-69
2023/11/02 13:25:16;;;;;;;;;;;20.10;46.00;;;;;;5093892;28;20266;-70
2023/11/02 13:27:44;;;;;;;;;;;20.00;46.20;;;;;;5095442;28;19920;-69
2023/11/02 13:30:11;;;;;;;;;;;20.00;46.10;;;;;;5094534;28;19965;-68
2023/11/02 13:32:38;;;;;;;;;;;19.90;46.30;;;;;;5094024;28;19920;-70
2023/11/02 13:35:05;;;;;;;;;;;19.90;46.30;;;;;;5094765;28;19916;-69
2023/11/02 13:37:32;;;;;;;;;;;19.80;46.50;;;;;;5093845;28;20332;-69
2023/11/02 13:39:58;;;;;;;;;;;19.80;46.80;;;;;;5094908;28;19970;-69
2023/11/02 13:42:24;;;;;;;;;;;19.70;46.80;;;;;;5093223;28;19966;-70
2023/11/02 13:44:51;;;;;;;;;;;19.60;46.10;;;;;;5093591;28;20003;-69
2023/11/02 13:47:18;;;;;;;;;;;19.60;47.60;;;;;;5095041;28;20348;-69
2023/11/02 13:49:44;;;;;;;;;;;19.50;47.50;;;;;;5094538;28;20276;-70
2023/11/02 13:52:09;;;;;;;;;;;19.40;46.70;;;;;;5076694;28;19920;-69
2023/11/02 13:54:35;;;;;;;;;;;19.40;47.10;;;;;;5073102;28;19947;-70
2023/11/02 13:57:01;;;;;;;;;;;19.30;47.60;;;;;;5073286;28;19926;-69
2023/11/02 13:59:29;;;;;;;;;;;19.30;47.20;;;;;;5074197;28;20384;-70
2023/11/02 14:01:55;;;;;;;;;;;19.30;48.00;;;;;;5089098;28;19920;-70
2023/11/02 14:04:21;;;;;;;;;;;19.20;48.30;;;;;;5093390;28;20015;-69
2023/11/02 14:07:05;;;;;;;;;;;19.20;48.70;;;;;;5094179;28;20019;-68
2023/11/02 14:09:31;;;;;;;;;;;19.20;48.90;;;;;;5094351;28;19927;-69
2023/11/02 14:11:57;;;;;;;;;;;19.10;49.10;;;;;;5075623;28;19951;-69
2023/11/02 14:14:23;;;;;;;;;;;19.00;49.30;;;;;;5094301;28;19954;-70
2023/11/02 14:16:48;;;;;;;;;;;19.00;49.30;;;;;;5094495;28;19955;-69
2023/11/02 14:19:14;;;;;;;;;;;19.00;49.60;;;;;;5092860;28;20011;-69
2023/11/02 14:21:40;;;;;;;;;;;18.90;49.50;;;;;;5079863;28;19924;-69
2023/11/02 14:24:07;;;;;;;;;;;18.90;49.50;;;;;;5073696;28;20484;-69
2023/11/02 14:26:33;;;;;;;;;;;18.90;49.10;;;;;;5055941;28;19920;-70
2023/11/02 14:28:59;;;;;;;;;;;18.80;49.30;;;;;;5073612;28;20420;-69
2023/11/02 14:31:26;;;;;;;;;;;18.80;49.60;;;;;;5083362;28;19919;-68
2023/11/02 14:33:52;;;;;;;;;;;18.70;50.00;;;;;;5092667;28;19919;-69
2023/11/02 14:36:22;;;;;;;;;;;18.70;50.20;;;;;;5092236;28;19959;-70
2023/11/02 14:38:48;;;;;;;;;;;18.70;50.20;;;;;;5093697;28;20352;-69
2023/11/02 14:41:14;;;;;;;;;;;18.70;50.30;;;;;;5092070;28;19963;-69
2023/11/02 14:43:40;;;;;;;;;;;18.60;50.40;;;;;;5093776;28;19943;-69
2023/11/02 14:46:06;;;;;;;;;;;18.60;50.40;;;;;;5093360;28;19920;-69
2023/11/02 14:48:33;;;;;;;;;;;18.50;50.50;;;;;;5092343;28;19918;-70
2023/11/02 14:50:59;;;;;;;;;;;18.50;50.60;;;;;;5085227;28;19966;-69
2023/11/02 14:53:25;;;;;;;;;;;18.50;51.70;;;;;;5071910;28;20337;-69
2023/11/02 14:55:51;;;;;;;;;;;18.50;51.00;;;;;;5071925;28;20022;-69
2023/11/02 14:58:17;;;;;;;;;;;18.40;51.00;;;;;;5073360;28;19939;-69